Terminal Aerodrome Forecast
Issued by NWS

Home | Current Version | Previous Version | Graphics & Text | Print | Product List | Glossary On
Versions: 1 2 3 4 5 6 7 8 9 10 11 12 13 14 15 16 17 18 19 20 21 22 23
000
FTUS43 KIWX 081737
TAFSBN
TAF
KSBN 081737Z 0818/0918 22013KT P6SM BKN080
     FM090700 22010KT 5SM -SN OVC030
     FM091000 22010KT 2SM -SN OVC015
     FM091600 32015G23KT 2SM -SHSN BLSN OVC020=

USA.gov is the U.S. government's official web portal to all federal, state and local government web resources and services.